sensor_id;sensor_type;location;lat;lon;timestamp;pressure;altitude;pressure_sealevel;temperature;humidity
80149;BME280;69473;42.426;26.644;2023-08-17T00:02:13;98857.13;;;23.43;59.17
80149;BME280;69473;42.426;26.644;2023-08-17T00:04:39;98858.38;;;23.36;59.06
80149;BME280;69473;42.426;26.644;2023-08-17T00:07:05;98853.66;;;23.57;58.55
80149;BME280;69473;42.426;26.644;2023-08-17T00:09:31;98862.06;;;23.49;59.42
80149;BME280;69473;42.426;26.644;2023-08-17T00:11:57;98855.94;;;23.33;59.59
80149;BME280;69473;42.426;26.644;2023-08-17T00:14:23;98857.47;;;23.37;59.79
80149;BME280;69473;42.426;26.644;2023-08-17T00:16:52;98855.56;;;23.39;59.25
80149;BME280;69473;42.426;26.644;2023-08-17T00:19:18;98856.53;;;23.38;59.45
80149;BME280;69473;42.426;26.644;2023-08-17T00:21:46;98863.09;;;23.31;59.57
80149;BME280;69473;42.426;26.644;2023-08-17T00:24:12;98859.16;;;23.38;59.28
80149;BME280;69473;42.426;26.644;2023-08-17T00:26:38;98856.34;;;23.41;59.01
80149;BME280;69473;42.426;26.644;2023-08-17T00:29:04;98855.19;;;23.31;59.93
80149;BME280;69473;42.426;26.644;2023-08-17T00:31:29;98854.91;;;23.35;59.77
80149;BME280;69473;42.426;26.644;2023-08-17T00:33:55;98845.34;;;23.33;59.51
80149;BME280;69473;42.426;26.644;2023-08-17T00:36:20;98852.53;;;23.31;59.33
80149;BME280;69473;42.426;26.644;2023-08-17T00:38:46;98858.16;;;23.24;60.05
80149;BME280;69473;42.426;26.644;2023-08-17T00:41:11;98862.06;;;23.17;60.14
80149;BME280;69473;42.426;26.644;2023-08-17T00:43:37;98858.69;;;23.15;60.38
80149;BME280;69473;42.426;26.644;2023-08-17T00:46:03;98838.91;;;23.22;59.74
80149;BME280;69473;42.426;26.644;2023-08-17T00:48:29;98845.34;;;23.33;59.60
80149;BME280;69473;42.426;26.644;2023-08-17T00:50:58;98841.97;;;23.31;59.75
80149;BME280;69473;42.426;26.644;2023-08-17T00:53:27;98842.84;;;23.15;60.25
80149;BME280;69473;42.426;26.644;2023-08-17T00:55:55;98850.16;;;23.10;59.92
80149;BME280;69473;42.426;26.644;2023-08-17T00:58:21;98848.78;;;23.19;60.06
80149;BME280;69473;42.426;26.644;2023-08-17T01:00:47;98850.13;;;23.26;59.74
80149;BME280;69473;42.426;26.644;2023-08-17T01:03:15;98852.97;;;23.23;59.40
80149;BME280;69473;42.426;26.644;2023-08-17T01:05:40;98847.94;;;23.18;59.91
80149;BME280;69473;42.426;26.644;2023-08-17T01:08:06;98850.31;;;23.07;60.04
80149;BME280;69473;42.426;26.644;2023-08-17T01:10:59;98853.75;;;23.09;60.15
80149;BME280;69473;42.426;26.644;2023-08-17T01:13:57;98849.47;;;23.22;59.82
80149;BME280;69473;42.426;26.644;2023-08-17T01:16:31;98840.59;;;23.23;59.62
80149;BME280;69473;42.426;26.644;2023-08-17T01:19:00;98843.34;;;23.06;60.51
80149;BME280;69473;42.426;26.644;2023-08-17T01:21:39;98842.84;;;23.15;59.92
80149;BME280;69473;42.426;26.644;2023-08-17T01:24:07;98838.63;;;23.11;60.15
80149;BME280;69473;42.426;26.644;2023-08-17T01:26:33;98839.41;;;23.13;60.11
80149;BME280;69473;42.426;26.644;2023-08-17T01:28:58;98841.09;;;23.14;59.61
80149;BME280;69473;42.426;26.644;2023-08-17T01:31:33;98826.47;;;23.09;59.86
80149;BME280;69473;42.426;26.644;2023-08-17T01:34:08;98843.00;;;23.12;59.85
80149;BME280;69473;42.426;26.644;2023-08-17T01:36:43;98846.22;;;23.17;59.91
80149;BME280;69473;42.426;26.644;2023-08-17T01:39:13;98843.00;;;23.12;59.93
80149;BME280;69473;42.426;26.644;2023-08-17T01:41:46;98836.88;;;23.12;59.78
80149;BME280;69473;42.426;26.644;2023-08-17T01:44:13;98827.31;;;23.09;59.99
80149;BME280;69473;42.426;26.644;2023-08-17T01:46:39;98832.75;;;23.22;59.31
80149;BME280;69473;42.426;26.644;2023-08-17T01:49:04;98835.81;;;23.14;60.11
80149;BME280;69473;42.426;26.644;2023-08-17T01:51:30;98829.19;;;23.07;59.71
80149;BME280;69473;42.426;26.644;2023-08-17T01:53:55;98830.88;;;23.08;60.13
80149;BME280;69473;42.426;26.644;2023-08-17T01:56:21;98826.81;;;23.02;60.22
80149;BME280;69473;42.426;26.644;2023-08-17T01:58:46;98823.91;;;23.07;59.99
80149;BME280;69473;42.426;26.644;2023-08-17T02:01:12;98836.16;;;23.08;59.88
80149;BME280;69473;42.426;26.644;2023-08-17T02:03:37;98830.53;;;23.14;60.02
80149;BME280;69473;42.426;26.644;2023-08-17T02:06:03;98838.41;;;23.00;60.60
80149;BME280;69473;42.426;26.644;2023-08-17T02:08:30;98848.97;;;23.00;60.13
80149;BME280;69473;42.426;26.644;2023-08-17T02:10:55;98843.88;;;22.97;60.45
80149;BME280;69473;42.426;26.644;2023-08-17T02:13:21;98842.84;;;22.99;59.92
80149;BME280;69473;42.426;26.644;2023-08-17T02:15:47;98839.75;;;23.07;60.23
80149;BME280;69473;42.426;26.644;2023-08-17T02:18:13;98835.31;;;23.08;59.94
80149;BME280;69473;42.426;26.644;2023-08-17T02:20:38;98838.56;;;23.13;59.78
80149;BME280;69473;42.426;26.644;2023-08-17T02:23:04;98831.75;;;23.09;60.17
80149;BME280;69473;42.426;26.644;2023-08-17T02:25:29;98834.91;;;23.15;60.07
80149;BME280;69473;42.426;26.644;2023-08-17T02:28:01;98825.44;;;23.11;60.05
80149;BME280;69473;42.426;26.644;2023-08-17T02:30:27;98822.03;;;23.09;60.03
80149;BME280;69473;42.426;26.644;2023-08-17T02:32:53;98820.13;;;23.11;59.71
80149;BME280;69473;42.426;26.644;2023-08-17T02:35:19;98815.53;;;22.99;60.59
80149;BME280;69473;42.426;26.644;2023-08-17T02:37:44;98822.91;;;22.94;60.42
80149;BME280;69473;42.426;26.644;2023-08-17T02:40:10;98816.16;;;23.04;60.32
80149;BME280;69473;42.426;26.644;2023-08-17T02:42:36;98820.13;;;23.11;59.82
80149;BME280;69473;42.426;26.644;2023-08-17T02:45:01;98821.25;;;23.07;60.05
80149;BME280;69473;42.426;26.644;2023-08-17T02:47:27;98812.31;;;23.10;60.00
80149;BME280;69473;42.426;26.644;2023-08-17T02:49:52;98816.75;;;23.09;59.47
80149;BME280;69473;42.426;26.644;2023-08-17T02:52:18;98825.94;;;23.02;60.05
80149;BME280;69473;42.426;26.644;2023-08-17T02:54:43;98831.56;;;22.96;60.52
80149;BME280;69473;42.426;26.644;2023-08-17T02:57:09;98822.91;;;22.94;60.23
80149;BME280;69473;42.426;26.644;2023-08-17T02:59:34;98820.50;;;23.05;59.94
80149;BME280;69473;42.426;26.644;2023-08-17T03:02:00;98822.38;;;23.03;60.11
80149;BME280;69473;42.426;26.644;2023-08-17T03:04:25;98827.84;;;23.00;59.99
80149;BME280;69473;42.426;26.644;2023-08-17T03:06:51;98829.38;;;23.04;59.70
80149;BME280;69473;42.426;26.644;2023-08-17T03:09:16;98833.63;;;23.07;59.77
80149;BME280;69473;42.426;26.644;2023-08-17T03:11:42;98835.50;;;23.04;60.02
80149;BME280;69473;42.426;26.644;2023-08-17T03:14:07;98828.19;;;22.94;60.40
80149;BME280;69473;42.426;26.644;2023-08-17T03:16:33;98835.66;;;23.01;59.73
80149;BME280;69473;42.426;26.644;2023-08-17T03:18:59;98832.09;;;23.02;59.83
80149;BME280;69473;42.426;26.644;2023-08-17T03:21:24;98825.94;;;23.02;59.72
80149;BME280;69473;42.426;26.644;2023-08-17T03:23:52;98837.72;;;22.96;59.91
80149;BME280;69473;42.426;26.644;2023-08-17T03:26:17;98839.34;;;23.15;59.64
80149;BME280;69473;42.426;26.644;2023-08-17T03:28:44;98838.81;;;23.08;59.81
80149;BME280;69473;42.426;26.644;2023-08-17T03:31:10;98844.09;;;23.08;59.69
80149;BME280;69473;42.426;26.644;2023-08-17T03:33:36;98841.28;;;23.11;59.70
80149;BME280;69473;42.426;26.644;2023-08-17T03:36:03;98839.94;;;23.04;59.70
80149;BME280;69473;42.426;26.644;2023-08-17T03:38:29;98847.78;;;23.21;59.01
80149;BME280;69473;42.426;26.644;2023-08-17T03:40:54;98841.38;;;23.25;58.98
80149;BME280;69473;42.426;26.644;2023-08-17T03:43:20;98838.53;;;23.28;58.40
80149;BME280;69473;42.426;26.644;2023-08-17T03:52:16;98841.44;;;23.08;59.58
80149;BME280;69473;42.426;26.644;2023-08-17T03:54:41;98851.69;;;23.14;59.10
80149;BME280;69473;42.426;26.644;2023-08-17T03:57:07;98850.91;;;23.28;58.60
80149;BME280;69473;42.426;26.644;2023-08-17T03:59:33;98855.56;;;23.39;58.72
80149;BME280;69473;42.426;26.644;2023-08-17T04:01:59;98851.13;;;23.55;57.67
80149;BME280;69473;42.426;26.644;2023-08-17T04:04:24;98843.56;;;23.63;57.19
80149;BME280;69473;42.426;26.644;2023-08-17T04:06:50;98846.56;;;23.73;56.72
80149;BME280;69473;42.426;26.644;2023-08-17T04:09:15;98844.75;;;23.73;57.05
80149;BME280;69473;42.426;26.644;2023-08-17T04:11:41;98845.84;;;23.85;56.66
80149;BME280;69473;42.426;26.644;2023-08-17T04:14:06;98851.94;;;24.16;55.80
80149;BME280;69473;42.426;26.644;2023-08-17T04:16:34;98847.13;;;24.23;55.70
80149;BME280;69473;42.426;26.644;2023-08-17T04:19:00;98853.34;;;24.36;54.94
80149;BME280;69473;42.426;26.644;2023-08-17T04:21:25;98853.34;;;24.36;55.41
80149;BME280;69473;42.426;26.644;2023-08-17T04:23:51;98849.97;;;24.48;54.70
80149;BME280;69473;42.426;26.644;2023-08-17T04:26:17;98856.97;;;24.63;54.14
80149;BME280;69473;42.426;26.644;2023-08-17T04:28:42;98864.00;;;24.64;53.72
80149;BME280;69473;42.426;26.644;2023-08-17T04:31:08;98873.53;;;24.67;53.87
80149;BME280;69473;42.426;26.644;2023-08-17T04:33:34;98859.03;;;24.87;53.10
80149;BME280;69473;42.426;26.644;2023-08-17T04:35:59;98863.19;;;24.91;53.29
80149;BME280;69473;42.426;26.644;2023-08-17T04:38:26;98867.72;;;24.89;53.95
80149;BME280;69473;42.426;26.644;2023-08-17T04:40:52;98874.22;;;24.71;53.71
80149;BME280;69473;42.426;26.644;2023-08-17T04:43:17;98877.41;;;24.76;53.71
80149;BME280;69473;42.426;26.644;2023-08-17T04:45:43;98872.63;;;24.95;53.86
80149;BME280;69473;42.426;26.644;2023-08-17T04:48:12;98868.16;;;25.24;52.64
80149;BME280;69473;42.426;26.644;2023-08-17T04:50:38;98874.41;;;25.50;51.89
80149;BME280;69473;42.426;26.644;2023-08-17T04:53:03;98872.22;;;25.70;51.19
80149;BME280;69473;42.426;26.644;2023-08-17T04:55:29;98875.97;;;25.80;50.96
80149;BME280;69473;42.426;26.644;2023-08-17T04:57:54;98871.78;;;25.90;50.85
80149;BME280;69473;42.426;26.644;2023-08-17T05:00:21;98872.63;;;26.03;50.30
80149;BME280;69473;42.426;26.644;2023-08-17T05:02:54;98874.56;;;26.14;50.67
80149;BME280;69473;42.426;26.644;2023-08-17T05:05:20;98866.69;;;26.13;50.10
80149;BME280;69473;42.426;26.644;2023-08-17T05:07:46;98866.91;;;26.35;49.56
80149;BME280;69473;42.426;26.644;2023-08-17T05:10:11;98866.91;;;26.35;49.58
80149;BME280;69473;42.426;26.644;2023-08-17T05:12:37;98865.09;;;26.23;49.94
80149;BME280;69473;42.426;26.644;2023-08-17T05:15:03;98868.19;;;26.55;49.05
80149;BME280;69473;42.426;26.644;2023-08-17T05:17:28;98864.56;;;26.69;48.38
80149;BME280;69473;42.426;26.644;2023-08-17T05:19:54;98860.09;;;26.82;48.25
80149;BME280;69473;42.426;26.644;2023-08-17T05:22:20;98869.59;;;26.98;48.56
80149;BME280;69473;42.426;26.644;2023-08-17T05:24:45;98861.47;;;27.12;47.34
80149;BME280;69473;42.426;26.644;2023-08-17T05:27:11;98863.56;;;27.32;47.72
80149;BME280;69473;42.426;26.644;2023-08-17T05:29:36;98867.22;;;27.43;46.98
80149;BME280;69473;42.426;26.644;2023-08-17T05:32:02;98859.56;;;27.62;46.51
80149;BME280;69473;42.426;26.644;2023-08-17T05:34:28;98865.94;;;27.24;47.31
80149;BME280;69473;42.426;26.644;2023-08-17T05:36:53;98864.69;;;27.17;47.68
80149;BME280;69473;42.426;26.644;2023-08-17T05:39:19;98861.34;;;26.89;47.60
80149;BME280;69473;42.426;26.644;2023-08-17T05:41:45;98872.00;;;26.51;48.68
80149;BME280;69473;42.426;26.644;2023-08-17T05:44:10;98872.63;;;28.92;43.52
80149;BME280;69473;42.426;26.644;2023-08-17T05:46:36;98866.06;;;30.46;39.29
80149;BME280;69473;42.426;26.644;2023-08-17T05:49:02;98861.53;;;31.27;37.92
80149;BME280;69473;42.426;26.644;2023-08-17T05:51:28;98862.28;;;30.48;39.12
80149;BME280;69473;42.426;26.644;2023-08-17T05:53:54;98862.09;;;31.21;38.18
80149;BME280;69473;42.426;26.644;2023-08-17T05:56:19;98861.56;;;32.05;36.23
80149;BME280;69473;42.426;26.644;2023-08-17T05:58:45;98856.41;;;32.40;36.01
80149;BME280;69473;42.426;26.644;2023-08-17T06:01:11;98852.19;;;32.75;34.74
80149;BME280;69473;42.426;26.644;2023-08-17T06:03:37;98854.53;;;32.88;34.93
80149;BME280;69473;42.426;26.644;2023-08-17T06:06:04;98853.75;;;33.23;34.02
80149;BME280;69473;42.426;26.644;2023-08-17T06:08:31;98863.34;;;33.71;33.66
80149;BME280;69473;42.426;26.644;2023-08-17T06:10:56;98857.97;;;33.71;33.02
80149;BME280;69473;42.426;26.644;2023-08-17T06:13:22;98858.28;;;33.68;32.93
80149;BME280;69473;42.426;26.644;2023-08-17T06:15:47;98860.56;;;33.63;32.99
80149;BME280;69473;42.426;26.644;2023-08-17T06:18:13;98855.72;;;34.02;32.23
80149;BME280;69473;42.426;26.644;2023-08-17T06:20:38;98848.09;;;34.50;31.89
80149;BME280;69473;42.426;26.644;2023-08-17T06:23:04;98862.94;;;34.97;31.53
80149;BME280;69473;42.426;26.644;2023-08-17T06:25:30;98868.94;;;35.25;30.96
80149;BME280;69473;42.426;26.644;2023-08-17T06:27:55;98857.91;;;35.60;30.25
80149;BME280;69473;42.426;26.644;2023-08-17T06:30:22;98857.56;;;35.63;30.40
80149;BME280;69473;42.426;26.644;2023-08-17T06:32:47;98858.91;;;35.76;30.11
80149;BME280;69473;42.426;26.644;2023-08-17T06:35:13;98853.88;;;36.05;29.58
80149;BME280;69473;42.426;26.644;2023-08-17T06:37:38;98866.31;;;35.82;30.16
80149;BME280;69473;42.426;26.644;2023-08-17T06:40:04;98856.25;;;32.79;35.76
80149;BME280;69473;42.426;26.644;2023-08-17T06:42:34;98868.16;;;30.73;38.97
80149;BME280;69473;42.426;26.644;2023-08-17T06:45:00;98860.34;;;34.18;33.73
80149;BME280;69473;42.426;26.644;2023-08-17T06:47:26;98846.00;;;32.37;35.75
80149;BME280;69473;42.426;26.644;2023-08-17T06:49:51;98860.47;;;31.68;37.33
80149;BME280;69473;42.426;26.644;2023-08-17T06:52:17;98852.38;;;32.92;35.73
80149;BME280;69473;42.426;26.644;2023-08-17T06:54:43;98848.41;;;34.47;32.60
80149;BME280;69473;42.426;26.644;2023-08-17T06:57:08;98842.88;;;36.79;28.94
80149;BME280;69473;42.426;26.644;2023-08-17T06:59:34;98855.22;;;37.13;27.89
80149;BME280;69473;42.426;26.644;2023-08-17T07:01:59;98841.56;;;34.26;32.59
80149;BME280;69473;42.426;26.644;2023-08-17T07:04:25;98849.75;;;31.78;36.46
80149;BME280;69473;42.426;26.644;2023-08-17T07:06:51;98848.41;;;34.47;31.91
80149;BME280;69473;42.426;26.644;2023-08-17T07:09:16;98846.72;;;36.45;28.91
80149;BME280;69473;42.426;26.644;2023-08-17T07:11:42;98842.50;;;37.44;26.98
80149;BME280;69473;42.426;26.644;2023-08-17T07:14:08;98844.53;;;34.15;31.12
80149;BME280;69473;42.426;26.644;2023-08-17T07:16:33;98842.88;;;33.07;33.20
80149;BME280;69473;42.426;26.644;2023-08-17T07:18:59;98847.50;;;31.44;36.31
80149;BME280;69473;42.426;26.644;2023-08-17T07:21:25;98849.72;;;32.92;33.60
80149;BME280;69473;42.426;26.644;2023-08-17T07:23:53;98847.91;;;36.90;27.33
80149;BME280;69473;42.426;26.644;2023-08-17T07:26:19;98843.19;;;38.60;25.53
80149;BME280;69473;42.426;26.644;2023-08-17T07:28:45;98837.19;;;38.20;26.03
80149;BME280;69473;42.426;26.644;2023-08-17T07:31:11;98841.72;;;37.67;24.93
80149;BME280;69473;42.426;26.644;2023-08-17T07:33:38;98834.66;;;37.12;25.79
80149;BME280;69473;42.426;26.644;2023-08-17T07:36:04;98843.66;;;37.27;25.76
80149;BME280;69473;42.426;26.644;2023-08-17T07:38:29;98836.09;;;38.59;23.72
80149;BME280;69473;42.426;26.644;2023-08-17T07:40:55;98836.34;;;39.30;23.09
80149;BME280;69473;42.426;26.644;2023-08-17T07:43:21;98841.94;;;38.92;22.98
80149;BME280;69473;42.426;26.644;2023-08-17T07:45:53;98847.72;;;38.30;23.69
80149;BME280;69473;42.426;26.644;2023-08-17T07:48:19;98838.69;;;36.13;26.45
80149;BME280;69473;42.426;26.644;2023-08-17T07:50:51;98829.97;;;37.06;25.85
80149;BME280;69473;42.426;26.644;2023-08-17T07:53:19;98831.69;;;36.98;26.08
80149;BME280;69473;42.426;26.644;2023-08-17T07:55:45;98835.00;;;35.73;27.00
80149;BME280;69473;42.426;26.644;2023-08-17T07:58:11;98832.41;;;34.80;28.88
80149;BME280;69473;42.426;26.644;2023-08-17T08:00:37;98827.66;;;34.05;29.32
80149;BME280;69473;42.426;26.644;2023-08-17T08:03:03;98821.81;;;33.66;30.19
80149;BME280;69473;42.426;26.644;2023-08-17T08:05:28;98807.78;;;33.54;30.57
80149;BME280;69473;42.426;26.644;2023-08-17T08:07:54;98821.09;;;33.46;31.00
80149;BME280;69473;42.426;26.644;2023-08-17T08:10:19;98816.41;;;33.30;30.78
80149;BME280;69473;42.426;26.644;2023-08-17T08:12:45;98813.44;;;32.87;31.78
80149;BME280;69473;42.426;26.644;2023-08-17T08:15:10;98816.81;;;32.89;31.94
80149;BME280;69473;42.426;26.644;2023-08-17T08:17:36;98817.09;;;33.14;31.66
80149;BME280;69473;42.426;26.644;2023-08-17T08:20:03;98811.91;;;33.30;31.55
80149;BME280;69473;42.426;26.644;2023-08-17T08:22:28;98815.34;;;33.23;31.40
80149;BME280;69473;42.426;26.644;2023-08-17T08:24:54;98812.63;;;33.05;32.40
80149;BME280;69473;42.426;26.644;2023-08-17T08:27:20;98822.84;;;33.01;31.78
80149;BME280;69473;42.426;26.644;2023-08-17T08:29:45;98827.22;;;32.75;32.33
80149;BME280;69473;42.426;26.644;2023-08-17T08:32:11;98829.63;;;32.96;33.06
80149;BME280;69473;42.426;26.644;2023-08-17T08:34:36;98829.13;;;32.82;32.23
80149;BME280;69473;42.426;26.644;2023-08-17T08:37:02;98830.16;;;32.81;32.36
80149;BME280;69473;42.426;26.644;2023-08-17T08:39:28;98832.88;;;32.72;32.64
80149;BME280;69473;42.426;26.644;2023-08-17T08:41:54;98813.88;;;32.83;32.63
80149;BME280;69473;42.426;26.644;2023-08-17T08:44:20;98826.69;;;32.89;31.80
80149;BME280;69473;42.426;26.644;2023-08-17T08:46:46;98825.44;;;32.83;32.92
80149;BME280;69473;42.426;26.644;2023-08-17T08:49:12;98819.59;;;32.70;32.77
80149;BME280;69473;42.426;26.644;2023-08-17T08:51:46;98826.84;;;33.15;32.45
80149;BME280;69473;42.426;26.644;2023-08-17T08:54:13;98834.94;;;33.51;32.35
80149;BME280;69473;42.426;26.644;2023-08-17T08:56:42;98826.31;;;33.29;32.67
80149;BME280;69473;42.426;26.644;2023-08-17T08:59:10;98833.84;;;33.44;31.40
80149;BME280;69473;42.426;26.644;2023-08-17T09:01:36;98826.84;;;33.15;32.27
80149;BME280;69473;42.426;26.644;2023-08-17T09:04:04;98834.72;;;32.24;32.29
80149;BME280;69473;42.426;26.644;2023-08-17T09:06:31;98828.75;;;32.50;32.46
80149;BME280;69473;42.426;26.644;2023-08-17T09:08:57;98827.56;;;32.62;32.15
80149;BME280;69473;42.426;26.644;2023-08-17T09:11:24;98848.72;;;32.65;32.84
80149;BME280;69473;42.426;26.644;2023-08-17T09:13:49;98837.59;;;32.87;32.89
80149;BME280;69473;42.426;26.644;2023-08-17T09:16:15;98830.50;;;32.86;31.73
80149;BME280;69473;42.426;26.644;2023-08-17T09:18:41;98833.63;;;33.37;30.55
80149;BME280;69473;42.426;26.644;2023-08-17T09:21:07;98826.31;;;33.29;30.99
80149;BME280;69473;42.426;26.644;2023-08-17T09:23:32;98829.25;;;33.18;31.32
80149;BME280;69473;42.426;26.644;2023-08-17T09:26:08;98828.94;;;33.21;31.21
80149;BME280;69473;42.426;26.644;2023-08-17T09:28:39;98806.53;;;33.66;31.22
80149;BME280;69473;42.426;26.644;2023-08-17T09:31:05;98838.88;;;33.83;31.45
80149;BME280;69473;42.426;26.644;2023-08-17T09:33:32;98819.56;;;33.43;31.40
80149;BME280;69473;42.426;26.644;2023-08-17T09:35:59;98816.44;;;33.92;30.69
80149;BME280;69473;42.426;26.644;2023-08-17T09:38:26;98821.69;;;33.40;30.07
80149;BME280;69473;42.426;26.644;2023-08-17T09:40:52;98815.97;;;33.34;30.30
80149;BME280;69473;42.426;26.644;2023-08-17T09:43:19;98816.25;;;33.85;30.82
80149;BME280;69473;42.426;26.644;2023-08-17T09:45:47;98811.59;;;33.69;30.77
80149;BME280;69473;42.426;26.644;2023-08-17T09:48:19;98816.13;;;33.95;30.31
80149;BME280;69473;42.426;26.644;2023-08-17T09:50:46;98817.06;;;33.86;30.26
80149;BME280;69473;42.426;26.644;2023-08-17T09:53:17;98813.81;;;33.38;30.25
80149;BME280;69473;42.426;26.644;2023-08-17T09:55:43;98812.59;;;33.68;30.60
80149;BME280;69473;42.426;26.644;2023-08-17T09:58:10;98819.66;;;34.13;30.15
80149;BME280;69473;42.426;26.644;2023-08-17T10:00:44;98815.50;;;34.01;29.49
80149;BME280;69473;42.426;26.644;2023-08-17T10:03:13;98809.91;;;33.68;30.15
80149;BME280;69473;42.426;26.644;2023-08-17T10:05:42;98803.31;;;33.09;30.62
80149;BME280;69473;42.426;26.644;2023-08-17T10:08:10;98824.56;;;32.93;30.40
80149;BME280;69473;42.426;26.644;2023-08-17T10:10:42;98807.78;;;32.91;31.51
80149;BME280;69473;42.426;26.644;2023-08-17T10:22:02;98814.34;;;33.42;30.54
80149;BME280;69473;42.426;26.644;2023-08-17T10:24:19;98816.34;;;33.75;29.46
80149;BME280;69473;42.426;26.644;2023-08-17T10:26:46;98810.66;;;33.78;29.48
80149;BME280;69473;42.426;26.644;2023-08-17T10:29:12;98808.28;;;33.75;29.56
80149;BME280;69473;42.426;26.644;2023-08-17T10:31:38;98813.81;;;33.38;29.96
80149;BME280;69473;42.426;26.644;2023-08-17T10:34:04;98812.94;;;33.73;29.11
80149;BME280;69473;42.426;26.644;2023-08-17T10:36:32;98800.63;;;33.89;28.58
80149;BME280;69473;42.426;26.644;2023-08-17T10:39:20;98815.09;;;33.88;27.97
80149;BME280;69473;42.426;26.644;2023-08-17T10:41:47;98820.88;;;34.01;28.10
80149;BME280;69473;42.426;26.644;2023-08-17T10:44:13;98802.84;;;33.67;29.77
80149;BME280;69473;42.426;26.644;2023-08-17T10:46:40;98808.06;;;33.51;29.39
80149;BME280;69473;42.426;26.644;2023-08-17T10:49:24;98805.16;;;33.62;29.03
80149;BME280;69473;42.426;26.644;2023-08-17T10:52:08;98803.84;;;34.10;28.54
80149;BME280;69473;42.426;26.644;2023-08-17T10:54:41;98820.34;;;34.15;28.67
80149;BME280;69473;42.426;26.644;2023-08-17T10:57:29;98796.81;;;34.17;28.01
80149;BME280;69473;42.426;26.644;2023-08-17T11:00:25;98803.84;;;34.10;28.61
80149;BME280;69473;42.426;26.644;2023-08-17T11:03:04;98802.16;;;34.09;29.31
80149;BME280;69473;42.426;26.644;2023-08-17T11:05:42;98801.84;;;34.12;28.84
80149;BME280;69473;42.426;26.644;2023-08-17T11:08:32;98810.88;;;34.11;28.71
80149;BME280;69473;42.426;26.644;2023-08-17T11:11:06;98805.69;;;33.92;28.38
80149;BME280;69473;42.426;26.644;2023-08-17T11:13:36;98795.31;;;33.97;29.61
80149;BME280;69473;42.426;26.644;2023-08-17T11:16:04;98787.69;;;34.10;29.66
80149;BME280;69473;42.426;26.644;2023-08-17T11:18:31;98797.28;;;33.87;28.54
80149;BME280;69473;42.426;26.644;2023-08-17T11:20:58;98799.50;;;34.17;28.36
80149;BME280;69473;42.426;26.644;2023-08-17T11:23:24;98786.69;;;34.11;28.54
80149;BME280;69473;42.426;26.644;2023-08-17T11:25:52;98798.34;;;34.20;28.83
80149;BME280;69473;42.426;26.644;2023-08-17T11:28:18;98800.28;;;33.84;28.55
80149;BME280;69473;42.426;26.644;2023-08-17T11:30:44;98780.91;;;33.54;28.98
80149;BME280;69473;42.426;26.644;2023-08-17T11:33:10;98780.66;;;34.09;28.75
80149;BME280;69473;42.426;26.644;2023-08-17T11:35:36;98781.38;;;34.19;27.95
80149;BME280;69473;42.426;26.644;2023-08-17T11:38:03;98790.09;;;33.69;28.38
80149;BME280;69473;42.426;26.644;2023-08-17T11:40:29;98784.00;;;34.11;28.47
80149;BME280;69473;42.426;26.644;2023-08-17T11:42:55;98777.78;;;34.11;28.26
80149;BME280;69473;42.426;26.644;2023-08-17T11:45:21;98787.31;;;33.79;28.27
80149;BME280;69473;42.426;26.644;2023-08-17T11:47:47;98792.22;;;33.84;28.54
80149;BME280;69473;42.426;26.644;2023-08-17T11:50:13;98772.94;;;33.62;28.69
80149;BME280;69473;42.426;26.644;2023-08-17T11:52:40;98783.66;;;33.62;29.27
80149;BME280;69473;42.426;26.644;2023-08-17T11:55:07;98783.44;;;33.99;28.33
80149;BME280;69473;42.426;26.644;2023-08-17T11:57:36;98778.88;;;34.00;28.49
80149;BME280;69473;42.426;26.644;2023-08-17T12:00:04;98768.50;;;34.05;28.41
80149;BME280;69473;42.426;26.644;2023-08-17T12:05:53;98767.22;;;33.91;28.05
80149;BME280;69473;42.426;26.644;2023-08-17T12:08:18;98776.06;;;33.57;28.73
80149;BME280;69473;42.426;26.644;2023-08-17T12:10:44;98775.72;;;33.78;28.20
80149;BME280;69473;42.426;26.644;2023-08-17T12:13:13;98770.72;;;33.84;28.49
80149;BME280;69473;42.426;26.644;2023-08-17T12:15:38;98769.91;;;34.17;28.12
80149;BME280;69473;42.426;26.644;2023-08-17T12:18:04;98767.22;;;34.17;28.70
80149;BME280;69473;42.426;26.644;2023-08-17T12:20:32;98781.56;;;34.26;27.90
80149;BME280;69473;42.426;26.644;2023-08-17T12:23:01;98773.13;;;33.95;28.85
80149;BME280;69473;42.426;26.644;2023-08-17T12:25:27;98775.28;;;34.09;28.83
80149;BME280;69473;42.426;26.644;2023-08-17T12:27:53;98767.44;;;33.72;28.00
80149;BME280;69473;42.426;26.644;2023-08-17T12:30:31;98770.75;;;33.48;29.34
80149;BME280;69473;42.426;26.644;2023-08-17T12:33:01;98782.03;;;33.69;29.06
80149;BME280;69473;42.426;26.644;2023-08-17T12:35:28;98766.72;;;33.88;29.33
80149;BME280;69473;42.426;26.644;2023-08-17T12:37:54;98769.97;;;33.99;28.30
80149;BME280;69473;42.426;26.644;2023-08-17T12:40:20;98767.66;;;33.78;28.81
80149;BME280;69473;42.426;26.644;2023-08-17T12:42:47;98764.28;;;33.76;29.54
80149;BME280;69473;42.426;26.644;2023-08-17T12:45:13;98768.91;;;33.92;28.33
80149;BME280;69473;42.426;26.644;2023-08-17T12:47:39;98763.47;;;34.02;28.24
80149;BME280;69473;42.426;26.644;2023-08-17T12:50:05;98770.41;;;33.87;28.80
80149;BME280;69473;42.426;26.644;2023-08-17T12:52:31;98759.34;;;33.90;28.63
80149;BME280;69473;42.426;26.644;2023-08-17T12:54:56;98764.41;;;33.93;28.34
80149;BME280;69473;42.426;26.644;2023-08-17T12:57:22;98768.03;;;33.84;27.24
80149;BME280;69473;42.426;26.644;2023-08-17T12:59:47;98772.81;;;33.72;27.92
80149;BME280;69473;42.426;26.644;2023-08-17T13:02:13;98769.13;;;33.73;28.63
80149;BME280;69473;42.426;26.644;2023-08-17T13:04:39;98764.13;;;33.78;28.22
80149;BME280;69473;42.426;26.644;2023-08-17T13:07:05;98765.53;;;33.64;28.07
80149;BME280;69473;42.426;26.644;2023-08-17T13:09:30;98770.59;;;33.67;29.25